sensor_id;sensor_type;location;lat;lon;timestamp;temperature;humidity
18103;DHT22;9178;51.120;6.192;2023-04-24T00:01:36;10.10;99.90
18103;DHT22;9178;51.120;6.192;2023-04-24T00:04:05;10.10;99.90
18103;DHT22;9178;51.120;6.192;2023-04-24T00:06:38;10.10;99.90
18103;DHT22;9178;51.120;6.192;2023-04-24T00:09:08;10.00;99.90
18103;DHT22;9178;51.120;6.192;2023-04-24T00:11:37;10.00;99.90
18103;DHT22;9178;51.120;6.192;2023-04-24T00:14:07;9.90;99.90
18103;DHT22;9178;51.120;6.192;2023-04-24T00:16:34;9.90;99.90
18103;DHT22;9178;51.120;6.192;2023-04-24T00:19:02;9.90;99.90
18103;DHT22;9178;51.120;6.192;2023-04-24T00:21:31;9.80;99.90
18103;DHT22;9178;51.120;6.192;2023-04-24T00:24:00;9.80;99.90
18103;DHT22;9178;51.120;6.192;2023-04-24T00:26:30;9.80;99.90
18103;DHT22;9178;51.120;6.192;2023-04-24T00:29:00;9.70;99.90
18103;DHT22;9178;51.120;6.192;2023-04-24T00:31:27;9.80;99.90
18103;DHT22;9178;51.120;6.192;2023-04-24T00:33:58;9.80;99.90
18103;DHT22;9178;51.120;6.192;2023-04-24T00:36:25;9.80;99.90
18103;DHT22;9178;51.120;6.192;2023-04-24T00:38:52;9.70;99.90
18103;DHT22;9178;51.120;6.192;2023-04-24T00:41:19;9.70;99.90
18103;DHT22;9178;51.120;6.192;2023-04-24T00:43:51;9.70;99.90
18103;DHT22;9178;51.120;6.192;2023-04-24T00:46:21;9.70;99.90
18103;DHT22;9178;51.120;6.192;2023-04-24T00:48:48;9.70;99.90
18103;DHT22;9178;51.120;6.192;2023-04-24T00:51:16;9.60;99.90
18103;DHT22;9178;51.120;6.192;2023-04-24T00:53:43;9.60;99.90
18103;DHT22;9178;51.120;6.192;2023-04-24T00:56:13;9.60;99.90
18103;DHT22;9178;51.120;6.192;2023-04-24T00:58:43;9.50;99.90
18103;DHT22;9178;51.120;6.192;2023-04-24T01:01:22;9.50;99.90
18103;DHT22;9178;51.120;6.192;2023-04-24T01:03:51;9.40;99.90
18103;DHT22;9178;51.120;6.192;2023-04-24T01:06:27;9.40;99.90
18103;DHT22;9178;51.120;6.192;2023-04-24T01:08:55;9.40;99.90
18103;DHT22;9178;51.120;6.192;2023-04-24T01:11:28;9.40;99.90
18103;DHT22;9178;51.120;6.192;2023-04-24T01:13:59;9.30;99.90
18103;DHT22;9178;51.120;6.192;2023-04-24T01:16:30;9.30;99.90
18103;DHT22;9178;51.120;6.192;2023-04-24T01:19:03;9.30;99.90
18103;DHT22;9178;51.120;6.192;2023-04-24T01:21:31;9.30;99.90
18103;DHT22;9178;51.120;6.192;2023-04-24T01:24:06;9.20;99.90
18103;DHT22;9178;51.120;6.192;2023-04-24T01:26:36;9.30;99.90
18103;DHT22;9178;51.120;6.192;2023-04-24T01:29:04;9.20;99.90
18103;DHT22;9178;51.120;6.192;2023-04-24T01:31:32;9.20;99.90
18103;DHT22;9178;51.120;6.192;2023-04-24T01:34:03;9.20;99.90
18103;DHT22;9178;51.120;6.192;2023-04-24T01:36:36;9.20;99.90
18103;DHT22;9178;51.120;6.192;2023-04-24T01:39:08;9.20;99.90
18103;DHT22;9178;51.120;6.192;2023-04-24T01:41:44;9.20;99.90
18103;DHT22;9178;51.120;6.192;2023-04-24T01:44:18;9.20;99.90
18103;DHT22;9178;51.120;6.192;2023-04-24T01:46:48;9.20;99.90
18103;DHT22;9178;51.120;6.192;2023-04-24T01:49:15;9.20;99.90
18103;DHT22;9178;51.120;6.192;2023-04-24T01:51:48;9.20;99.90
18103;DHT22;9178;51.120;6.192;2023-04-24T01:54:20;9.20;99.90
18103;DHT22;9178;51.120;6.192;2023-04-24T01:56:47;9.20;99.90
18103;DHT22;9178;51.120;6.192;2023-04-24T01:59:17;9.20;99.90
18103;DHT22;9178;51.120;6.192;2023-04-24T02:02:04;9.20;99.90
18103;DHT22;9178;51.120;6.192;2023-04-24T02:04:37;9.20;99.90
18103;DHT22;9178;51.120;6.192;2023-04-24T02:07:04;9.20;99.90
18103;DHT22;9178;51.120;6.192;2023-04-24T02:09:37;9.20;99.90
18103;DHT22;9178;51.120;6.192;2023-04-24T02:12:07;9.20;99.90
18103;DHT22;9178;51.120;6.192;2023-04-24T02:14:36;9.20;99.90
18103;DHT22;9178;51.120;6.192;2023-04-24T02:17:08;9.20;99.90
18103;DHT22;9178;51.120;6.192;2023-04-24T02:19:35;9.20;99.90
18103;DHT22;9178;51.120;6.192;2023-04-24T02:22:02;9.30;99.90
18103;DHT22;9178;51.120;6.192;2023-04-24T02:24:33;9.20;99.90
18103;DHT22;9178;51.120;6.192;2023-04-24T02:27:00;9.30;99.90
18103;DHT22;9178;51.120;6.192;2023-04-24T02:29:27;9.20;99.90
18103;DHT22;9178;51.120;6.192;2023-04-24T02:32:04;9.30;99.90
18103;DHT22;9178;51.120;6.192;2023-04-24T02:34:31;9.30;99.90
18103;DHT22;9178;51.120;6.192;2023-04-24T02:37:05;9.30;99.90
18103;DHT22;9178;51.120;6.192;2023-04-24T02:39:34;9.20;99.90
18103;DHT22;9178;51.120;6.192;2023-04-24T02:42:07;9.30;99.90
18103;DHT22;9178;51.120;6.192;2023-04-24T02:44:34;9.20;99.90
18103;DHT22;9178;51.120;6.192;2023-04-24T02:47:01;9.30;99.90
18103;DHT22;9178;51.120;6.192;2023-04-24T02:49:29;9.30;99.90
18103;DHT22;9178;51.120;6.192;2023-04-24T02:51:56;9.20;99.90
18103;DHT22;9178;51.120;6.192;2023-04-24T02:54:23;9.20;99.90
18103;DHT22;9178;51.120;6.192;2023-04-24T02:56:52;9.20;99.90
18103;DHT22;9178;51.120;6.192;2023-04-24T02:59:19;9.20;99.90
18103;DHT22;9178;51.120;6.192;2023-04-24T03:01:46;9.20;99.90
18103;DHT22;9178;51.120;6.192;2023-04-24T03:04:13;9.20;99.90
18103;DHT22;9178;51.120;6.192;2023-04-24T03:06:41;9.20;99.90
18103;DHT22;9178;51.120;6.192;2023-04-24T03:09:08;9.20;99.90
18103;DHT22;9178;51.120;6.192;2023-04-24T03:11:35;9.20;99.90
18103;DHT22;9178;51.120;6.192;2023-04-24T03:14:04;9.20;99.90
18103;DHT22;9178;51.120;6.192;2023-04-24T03:16:31;9.20;99.90
18103;DHT22;9178;51.120;6.192;2023-04-24T03:18:58;9.20;99.90
18103;DHT22;9178;51.120;6.192;2023-04-24T03:21:25;9.20;99.90
18103;DHT22;9178;51.120;6.192;2023-04-24T03:23:53;9.20;99.90
18103;DHT22;9178;51.120;6.192;2023-04-24T03:26:20;9.20;99.90
18103;DHT22;9178;51.120;6.192;2023-04-24T03:28:47;9.20;99.90
18103;DHT22;9178;51.120;6.192;2023-04-24T03:31:16;9.20;99.90
18103;DHT22;9178;51.120;6.192;2023-04-24T03:33:45;9.20;99.90
18103;DHT22;9178;51.120;6.192;2023-04-24T03:36:12;9.20;99.90
18103;DHT22;9178;51.120;6.192;2023-04-24T03:38:38;9.20;99.90
18103;DHT22;9178;51.120;6.192;2023-04-24T03:41:05;9.20;99.90
18103;DHT22;9178;51.120;6.192;2023-04-24T03:43:33;9.20;99.90
18103;DHT22;9178;51.120;6.192;2023-04-24T03:46:00;9.10;99.90
18103;DHT22;9178;51.120;6.192;2023-04-24T03:48:28;9.20;99.90
18103;DHT22;9178;51.120;6.192;2023-04-24T03:50:58;9.10;99.90
18103;DHT22;9178;51.120;6.192;2023-04-24T03:53:26;9.10;99.90
18103;DHT22;9178;51.120;6.192;2023-04-24T03:55:53;9.10;99.90
18103;DHT22;9178;51.120;6.192;2023-04-24T03:58:20;9.10;99.90
18103;DHT22;9178;51.120;6.192;2023-04-24T04:00:50;9.10;99.90
18103;DHT22;9178;51.120;6.192;2023-04-24T04:03:17;9.00;99.90
18103;DHT22;9178;51.120;6.192;2023-04-24T04:05:45;9.10;99.90
18103;DHT22;9178;51.120;6.192;2023-04-24T04:08:12;9.00;99.90
18103;DHT22;9178;51.120;6.192;2023-04-24T04:10:39;9.00;99.90
18103;DHT22;9178;51.120;6.192;2023-04-24T04:13:06;9.00;99.90
18103;DHT22;9178;51.120;6.192;2023-04-24T04:15:33;9.00;99.90
18103;DHT22;9178;51.120;6.192;2023-04-24T04:18:01;8.90;99.90
18103;DHT22;9178;51.120;6.192;2023-04-24T04:20:28;8.90;99.90
18103;DHT22;9178;51.120;6.192;2023-04-24T04:22:59;8.90;99.90
18103;DHT22;9178;51.120;6.192;2023-04-24T04:25:27;8.90;99.90
18103;DHT22;9178;51.120;6.192;2023-04-24T04:27:54;8.90;99.90
18103;DHT22;9178;51.120;6.192;2023-04-24T04:30:26;8.90;99.90
18103;DHT22;9178;51.120;6.192;2023-04-24T04:32:55;8.90;99.90
18103;DHT22;9178;51.120;6.192;2023-04-24T04:35:22;8.80;99.90
18103;DHT22;9178;51.120;6.192;2023-04-24T04:37:49;8.90;99.90
18103;DHT22;9178;51.120;6.192;2023-04-24T04:40:18;8.80;99.90
18103;DHT22;9178;51.120;6.192;2023-04-24T04:42:48;8.80;99.90
18103;DHT22;9178;51.120;6.192;2023-04-24T04:45:18;8.70;99.90
18103;DHT22;9178;51.120;6.192;2023-04-24T04:47:46;8.70;99.90
18103;DHT22;9178;51.120;6.192;2023-04-24T04:50:13;8.60;99.90
18103;DHT22;9178;51.120;6.192;2023-04-24T04:52:45;8.60;99.90
18103;DHT22;9178;51.120;6.192;2023-04-24T04:55:12;8.60;99.90
18103;DHT22;9178;51.120;6.192;2023-04-24T04:57:43;8.50;99.90
18103;DHT22;9178;51.120;6.192;2023-04-24T05:00:12;8.50;99.90
18103;DHT22;9178;51.120;6.192;2023-04-24T05:02:41;8.50;99.90
18103;DHT22;9178;51.120;6.192;2023-04-24T05:05:09;8.50;99.90
18103;DHT22;9178;51.120;6.192;2023-04-24T05:07:36;8.50;99.90
18103;DHT22;9178;51.120;6.192;2023-04-24T05:10:03;8.50;99.90
18103;DHT22;9178;51.120;6.192;2023-04-24T05:12:31;8.50;99.90
18103;DHT22;9178;51.120;6.192;2023-04-24T05:15:01;8.40;99.90
18103;DHT22;9178;51.120;6.192;2023-04-24T05:17:28;8.40;99.90
18103;DHT22;9178;51.120;6.192;2023-04-24T05:19:55;8.40;99.90
18103;DHT22;9178;51.120;6.192;2023-04-24T05:22:22;8.50;99.90
18103;DHT22;9178;51.120;6.192;2023-04-24T05:24:49;8.40;99.90
18103;DHT22;9178;51.120;6.192;2023-04-24T05:27:24;8.50;99.90
18103;DHT22;9178;51.120;6.192;2023-04-24T05:29:53;8.50;99.90
18103;DHT22;9178;51.120;6.192;2023-04-24T05:32:22;8.50;99.90
18103;DHT22;9178;51.120;6.192;2023-04-24T05:34:52;8.50;99.90
18103;DHT22;9178;51.120;6.192;2023-04-24T05:37:22;8.50;99.90
18103;DHT22;9178;51.120;6.192;2023-04-24T05:39:49;8.50;99.90
18103;DHT22;9178;51.120;6.192;2023-04-24T05:42:17;8.50;99.90
18103;DHT22;9178;51.120;6.192;2023-04-24T05:44:44;8.50;99.90
18103;DHT22;9178;51.120;6.192;2023-04-24T05:47:11;8.40;99.90
18103;DHT22;9178;51.120;6.192;2023-04-24T05:49:42;8.40;99.90
18103;DHT22;9178;51.120;6.192;2023-04-24T05:52:09;8.40;99.90
18103;DHT22;9178;51.120;6.192;2023-04-24T05:54:36;8.30;99.90
18103;DHT22;9178;51.120;6.192;2023-04-24T05:57:03;8.30;99.90
18103;DHT22;9178;51.120;6.192;2023-04-24T05:59:33;8.30;99.90
18103;DHT22;9178;51.120;6.192;2023-04-24T06:02:00;8.30;99.90
18103;DHT22;9178;51.120;6.192;2023-04-24T06:04:29;8.30;99.90
18103;DHT22;9178;51.120;6.192;2023-04-24T06:06:57;8.20;99.90
18103;DHT22;9178;51.120;6.192;2023-04-24T06:09:24;8.20;99.90
18103;DHT22;9178;51.120;6.192;2023-04-24T06:11:51;8.20;99.90
18103;DHT22;9178;51.120;6.192;2023-04-24T06:14:19;8.20;99.90
18103;DHT22;9178;51.120;6.192;2023-04-24T06:16:46;8.20;99.90
18103;DHT22;9178;51.120;6.192;2023-04-24T06:19:14;8.30;99.90
18103;DHT22;9178;51.120;6.192;2023-04-24T06:21:41;8.30;99.90
18103;DHT22;9178;51.120;6.192;2023-04-24T06:24:09;8.30;99.90
18103;DHT22;9178;51.120;6.192;2023-04-24T06:26:36;8.30;99.90
18103;DHT22;9178;51.120;6.192;2023-04-24T06:29:03;8.30;99.90
18103;DHT22;9178;51.120;6.192;2023-04-24T06:31:30;8.30;99.90
18103;DHT22;9178;51.120;6.192;2023-04-24T06:34:14;8.30;99.90
18103;DHT22;9178;51.120;6.192;2023-04-24T06:36:41;8.20;99.90
18103;DHT22;9178;51.120;6.192;2023-04-24T06:39:09;8.20;99.90
18103;DHT22;9178;51.120;6.192;2023-04-24T06:41:36;8.20;99.90
18103;DHT22;9178;51.120;6.192;2023-04-24T06:44:03;8.20;99.90
18103;DHT22;9178;51.120;6.192;2023-04-24T06:46:30;8.10;99.90
18103;DHT22;9178;51.120;6.192;2023-04-24T06:48:57;8.10;99.90
18103;DHT22;9178;51.120;6.192;2023-04-24T06:51:25;8.10;99.90
18103;DHT22;9178;51.120;6.192;2023-04-24T06:53:53;8.10;99.90
18103;DHT22;9178;51.120;6.192;2023-04-24T06:56:23;8.10;99.90
18103;DHT22;9178;51.120;6.192;2023-04-24T06:58:50;8.00;99.90
18103;DHT22;9178;51.120;6.192;2023-04-24T07:01:17;7.90;99.90
18103;DHT22;9178;51.120;6.192;2023-04-24T07:03:46;7.90;99.90
18103;DHT22;9178;51.120;6.192;2023-04-24T07:06:14;7.80;99.90
18103;DHT22;9178;51.120;6.192;2023-04-24T07:08:44;7.70;99.90
18103;DHT22;9178;51.120;6.192;2023-04-24T07:11:11;7.60;99.90
18103;DHT22;9178;51.120;6.192;2023-04-24T07:13:39;7.50;99.90
18103;DHT22;9178;51.120;6.192;2023-04-24T07:16:19;7.50;99.90
18103;DHT22;9178;51.120;6.192;2023-04-24T07:18:46;7.40;99.90
18103;DHT22;9178;51.120;6.192;2023-04-24T07:21:13;7.30;99.90
18103;DHT22;9178;51.120;6.192;2023-04-24T07:23:40;7.30;99.90
18103;DHT22;9178;51.120;6.192;2023-04-24T07:26:11;7.30;99.90
18103;DHT22;9178;51.120;6.192;2023-04-24T07:28:41;7.30;99.90
18103;DHT22;9178;51.120;6.192;2023-04-24T07:31:14;7.30;99.90
18103;DHT22;9178;51.120;6.192;2023-04-24T07:33:44;7.30;99.90
18103;DHT22;9178;51.120;6.192;2023-04-24T07:36:11;7.30;99.90
18103;DHT22;9178;51.120;6.192;2023-04-24T07:38:41;7.30;99.90
18103;DHT22;9178;51.120;6.192;2023-04-24T07:41:08;7.40;99.90
18103;DHT22;9178;51.120;6.192;2023-04-24T07:43:35;7.40;99.90
18103;DHT22;9178;51.120;6.192;2023-04-24T07:46:05;7.50;99.90
18103;DHT22;9178;51.120;6.192;2023-04-24T07:48:32;7.50;99.90
18103;DHT22;9178;51.120;6.192;2023-04-24T07:51:02;7.50;99.90
18103;DHT22;9178;51.120;6.192;2023-04-24T07:53:29;7.50;99.90
18103;DHT22;9178;51.120;6.192;2023-04-24T07:55:59;7.50;99.90
18103;DHT22;9178;51.120;6.192;2023-04-24T07:58:27;7.60;99.90
18103;DHT22;9178;51.120;6.192;2023-04-24T08:00:57;7.50;99.90
18103;DHT22;9178;51.120;6.192;2023-04-24T08:03:26;7.50;99.90
18103;DHT22;9178;51.120;6.192;2023-04-24T08:05:55;7.50;99.90
18103;DHT22;9178;51.120;6.192;2023-04-24T08:08:23;7.50;99.90
18103;DHT22;9178;51.120;6.192;2023-04-24T08:10:55;7.50;99.90
18103;DHT22;9178;51.120;6.192;2023-04-24T08:13:24;7.50;99.90
18103;DHT22;9178;51.120;6.192;2023-04-24T08:15:54;7.50;99.90
18103;DHT22;9178;51.120;6.192;2023-04-24T08:18:21;7.50;99.90
18103;DHT22;9178;51.120;6.192;2023-04-24T08:20:50;7.50;99.90
18103;DHT22;9178;51.120;6.192;2023-04-24T08:23:17;7.50;99.90
18103;DHT22;9178;51.120;6.192;2023-04-24T08:25:44;7.50;99.90
18103;DHT22;9178;51.120;6.192;2023-04-24T08:28:11;7.50;99.90
18103;DHT22;9178;51.120;6.192;2023-04-24T08:30:38;7.50;99.90
18103;DHT22;9178;51.120;6.192;2023-04-24T08:33:05;7.60;99.90
18103;DHT22;9178;51.120;6.192;2023-04-24T08:35:32;7.50;99.90
18103;DHT22;9178;51.120;6.192;2023-04-24T08:38:00;7.50;99.90
18103;DHT22;9178;51.120;6.192;2023-04-24T08:40:28;7.60;99.90
18103;DHT22;9178;51.120;6.192;2023-04-24T08:42:56;7.60;99.90
18103;DHT22;9178;51.120;6.192;2023-04-24T08:45:23;7.60;99.90
18103;DHT22;9178;51.120;6.192;2023-04-24T08:47:52;7.70;99.90
18103;DHT22;9178;51.120;6.192;2023-04-24T08:50:20;7.60;99.90
18103;DHT22;9178;51.120;6.192;2023-04-24T08:52:48;7.70;99.90
18103;DHT22;9178;51.120;6.192;2023-04-24T08:55:18;7.70;99.90
18103;DHT22;9178;51.120;6.192;2023-04-24T08:57:50;7.80;99.90
18103;DHT22;9178;51.120;6.192;2023-04-24T09:00:18;7.80;99.90
18103;DHT22;9178;51.120;6.192;2023-04-24T09:02:47;7.80;99.90
18103;DHT22;9178;51.120;6.192;2023-04-24T09:05:16;7.90;99.90
18103;DHT22;9178;51.120;6.192;2023-04-24T09:07:45;7.90;99.90
18103;DHT22;9178;51.120;6.192;2023-04-24T09:10:13;8.00;99.90
18103;DHT22;9178;51.120;6.192;2023-04-24T09:12:47;8.00;99.90
18103;DHT22;9178;51.120;6.192;2023-04-24T09:15:16;8.10;99.90
18103;DHT22;9178;51.120;6.192;2023-04-24T09:17:43;8.20;99.90
18103;DHT22;9178;51.120;6.192;2023-04-24T09:20:10;8.20;99.90
18103;DHT22;9178;51.120;6.192;2023-04-24T09:22:38;8.30;99.90
18103;DHT22;9178;51.120;6.192;2023-04-24T09:25:07;8.40;99.90
18103;DHT22;9178;51.120;6.192;2023-04-24T09:27:35;8.50;99.90
18103;DHT22;9178;51.120;6.192;2023-04-24T09:30:03;8.50;99.90
18103;DHT22;9178;51.120;6.192;2023-04-24T09:32:30;8.70;99.90
18103;DHT22;9178;51.120;6.192;2023-04-24T09:35:07;8.80;99.90
18103;DHT22;9178;51.120;6.192;2023-04-24T09:37:39;9.00;99.90
18103;DHT22;9178;51.120;6.192;2023-04-24T09:40:15;9.20;99.90
18103;DHT22;9178;51.120;6.192;2023-04-24T09:42:51;9.30;99.90
18103;DHT22;9178;51.120;6.192;2023-04-24T09:45:20;9.40;99.90
18103;DHT22;9178;51.120;6.192;2023-04-24T09:47:52;9.50;99.90
18103;DHT22;9178;51.120;6.192;2023-04-24T09:50:19;9.50;99.90
18103;DHT22;9178;51.120;6.192;2023-04-24T09:52:56;9.50;99.90
18103;DHT22;9178;51.120;6.192;2023-04-24T09:55:24;9.40;99.90
18103;DHT22;9178;51.120;6.192;2023-04-24T09:57:55;9.40;99.90
18103;DHT22;9178;51.120;6.192;2023-04-24T10:00:27;9.30;99.90
18103;DHT22;9178;51.120;6.192;2023-04-24T10:02:55;9.30;99.90
18103;DHT22;9178;51.120;6.192;2023-04-24T10:05:31;9.20;99.90
18103;DHT22;9178;51.120;6.192;2023-04-24T10:08:04;9.00;99.90
18103;DHT22;9178;51.120;6.192;2023-04-24T10:10:34;8.90;99.90
18103;DHT22;9178;51.120;6.192;2023-04-24T10:13:04;8.80;99.90
18103;DHT22;9178;51.120;6.192;2023-04-24T10:15:34;8.70;99.90
18103;DHT22;9178;51.120;6.192;2023-04-24T10:18:02;8.60;99.90
18103;DHT22;9178;51.120;6.192;2023-04-24T10:20:32;8.50;99.90
18103;DHT22;9178;51.120;6.192;2023-04-24T10:23:00;8.50;99.90
18103;DHT22;9178;51.120;6.192;2023-04-24T10:25:30;8.50;99.90
18103;DHT22;9178;51.120;6.192;2023-04-24T10:28:01;8.50;99.90
18103;DHT22;9178;51.120;6.192;2023-04-24T10:30:30;8.50;99.90
18103;DHT22;9178;51.120;6.192;2023-04-24T10:33:02;8.60;99.90
18103;DHT22;9178;51.120;6.192;2023-04-24T10:35:31;8.80;99.90
18103;DHT22;9178;51.120;6.192;2023-04-24T10:38:02;9.00;99.90
18103;DHT22;9178;51.120;6.192;2023-04-24T10:40:32;9.40;99.90
18103;DHT22;9178;51.120;6.192;2023-04-24T10:43:01;9.90;99.90
18103;DHT22;9178;51.120;6.192;2023-04-24T10:45:32;10.70;99.90
18103;DHT22;9178;51.120;6.192;2023-04-24T10:48:01;10.80;99.90
18103;DHT22;9178;51.120;6.192;2023-04-24T10:50:29;10.50;99.90
18103;DHT22;9178;51.120;6.192;2023-04-24T10:53:06;10.40;99.90
18103;DHT22;9178;51.120;6.192;2023-04-24T10:55:42;10.60;99.90
18103;DHT22;9178;51.120;6.192;2023-04-24T10:58:11;10.60;99.90
18103;DHT22;9178;51.120;6.192;2023-04-24T11:00:39;11.00;99.90
18103;DHT22;9178;51.120;6.192;2023-04-24T11:03:23;11.60;99.90
18103;DHT22;9178;51.120;6.192;2023-04-24T11:05:53;12.10;99.90
18103;DHT22;9178;51.120;6.192;2023-04-24T11:08:26;12.20;99.90
18103;DHT22;9178;51.120;6.192;2023-04-24T11:11:02;11.70;99.90
18103;DHT22;9178;51.120;6.192;2023-04-24T11:16:30;11.20;99.90
18103;DHT22;9178;51.120;6.192;2023-04-24T11:19:05;10.90;99.90
18103;DHT22;9178;51.120;6.192;2023-04-24T11:21:39;10.60;99.90
18103;DHT22;9178;51.120;6.192;2023-04-24T11:24:27;10.50;99.90
18103;DHT22;9178;51.120;6.192;2023-04-24T11:26:57;10.40;99.90
18103;DHT22;9178;51.120;6.192;2023-04-24T11:29:46;10.30;99.90
18103;DHT22;9178;51.120;6.192;2023-04-24T11:32:17;10.30;99.90
18103;DHT22;9178;51.120;6.192;2023-04-24T11:34:48;10.20;99.90
18103;DHT22;9178;51.120;6.192;2023-04-24T11:37:16;10.20;99.90
18103;DHT22;9178;51.120;6.192;2023-04-24T11:39:43;10.20;99.90
18103;DHT22;9178;51.120;6.192;2023-04-24T11:42:12;10.20;99.90
18103;DHT22;9178;51.120;6.192;2023-04-24T11:44:41;10.30;99.90
18103;DHT22;9178;51.120;6.192;2023-04-24T11:47:09;10.40;99.90
18103;DHT22;9178;51.120;6.192;2023-04-24T11:49:42;10.60;99.90
18103;DHT22;9178;51.120;6.192;2023-04-24T11:52:10;10.70;99.90
18103;DHT22;9178;51.120;6.192;2023-04-24T11:54:37;10.90;99.90
18103;DHT22;9178;51.120;6.192;2023-04-24T11:57:05;10.90;99.90
18103;DHT22;9178;51.120;6.192;2023-04-24T11:59:36;11.00;99.90
18103;DHT22;9178;51.120;6.192;2023-04-24T12:02:03;10.90;99.90
18103;DHT22;9178;51.120;6.192;2023-04-24T12:04:38;11.10;99.90
18103;DHT22;9178;51.120;6.192;2023-04-24T12:07:06;11.60;99.90
18103;DHT22;9178;51.120;6.192;2023-04-24T12:09:43;12.00;99.90
18103;DHT22;9178;51.120;6.192;2023-04-24T12:12:11;12.10;99.90
18103;DHT22;9178;51.120;6.192;2023-04-24T12:14:48;12.10;99.90
18103;DHT22;9178;51.120;6.192;2023-04-24T12:17:16;12.00;99.90
18103;DHT22;9178;51.120;6.192;2023-04-24T12:19:47;12.00;99.90
18103;DHT22;9178;51.120;6.192;2023-04-24T12:22:15;11.90;99.90
18103;DHT22;9178;51.120;6.192;2023-04-24T12:25:09;11.70;99.90
18103;DHT22;9178;51.120;6.192;2023-04-24T12:27:52;11.50;99.90
18103;DHT22;9178;51.120;6.192;2023-04-24T12:30:20;11.40;99.90
18103;DHT22;9178;51.120;6.192;2023-04-24T12:32:50;11.40;99.90
18103;DHT22;9178;51.120;6.192;2023-04-24T12:35:24;11.40;99.90
18103;DHT22;9178;51.120;6.192;2023-04-24T12:37:51;11.40;99.90
18103;DHT22;9178;51.120;6.192;2023-04-24T12:40:25;11.50;99.90
18103;DHT22;9178;51.120;6.192;2023-04-24T12:42:57;11.70;99.90
18103;DHT22;9178;51.120;6.192;2023-04-24T12:45:24;11.80;99.90
18103;DHT22;9178;51.120;6.192;2023-04-24T12:47:56;11.80;99.90
18103;DHT22;9178;51.120;6.192;2023-04-24T12:50:25;11.80;99.90
18103;DHT22;9178;51.120;6.192;2023-04-24T12:52:52;11.90;99.90
18103;DHT22;9178;51.120;6.192;2023-04-24T12:55:20;12.10;99.90
18103;DHT22;9178;51.120;6.192;2023-04-24T12:57:57;12.20;99.90
18103;DHT22;9178;51.120;6.192;2023-04-24T13:00:30;12.20;99.90
18103;DHT22;9178;51.120;6.192;2023-04-24T13:02:57;12.10;99.90
18103;DHT22;9178;51.120;6.192;2023-04-24T13:05:28;12.20;99.90
18103;DHT22;9178;51.120;6.192;2023-04-24T13:08:00;12.40;99.90
18103;DHT22;9178;51.120;6.192;2023-04-24T13:10:29;12.70;99.90
18103;DHT22;9178;51.120;6.192;2023-04-24T13:12:56;13.00;99.90
18103;DHT22;9178;51.120;6.192;2023-04-24T13:15:23;12.90;99.90
18103;DHT22;9178;51.120;6.192;2023-04-24T13:17:51;12.70;99.90
18103;DHT22;9178;51.120;6.192;2023-04-24T13:20:18;12.60;99.90
18103;DHT22;9178;51.120;6.192;2023-04-24T13:22:54;12.50;99.90
18103;DHT22;9178;51.120;6.192;2023-04-24T13:25:21;12.40;99.90
18103;DHT22;9178;51.120;6.192;2023-04-24T13:27:53;12.30;99.90
18103;DHT22;9178;51.120;6.192;2023-04-24T13:30:21;12.30;99.90
18103;DHT22;9178;51.120;6.192;2023-04-24T13:32:48;12.30;99.90
18103;DHT22;9178;51.120;6.192;2023-04-24T13:35:15;12.40;99.90
18103;DHT22;9178;51.120;6.192;2023-04-24T13:37:42;12.50;99.90
18103;DHT22;9178;51.120;6.192;2023-04-24T13:40:10;12.20;99.90
18103;DHT22;9178;51.120;6.192;2023-04-24T13:42:46;12.10;99.90
18103;DHT22;9178;51.120;6.192;2023-04-24T13:45:16;12.00;99.90
18103;DHT22;9178;51.120;6.192;2023-04-24T13:47:43;11.90;99.90
18103;DHT22;9178;51.120;6.192;2023-04-24T13:50:13;11.70;99.90
18103;DHT22;9178;51.120;6.192;2023-04-24T13:52:41;11.60;99.90
18103;DHT22;9178;51.120;6.192;2023-04-24T13:55:08;11.70;99.90
18103;DHT22;9178;51.120;6.192;2023-04-24T13:57:35;11.90;99.90
18103;DHT22;9178;51.120;6.192;2023-04-24T14:00:03;12.00;99.90
18103;DHT22;9178;51.120;6.192;2023-04-24T14:02:36;12.50;99.90
18103;DHT22;9178;51.120;6.192;2023-04-24T14:05:03;13.10;99.90
18103;DHT22;9178;51.120;6.192;2023-04-24T14:07:31;13.30;99.90
18103;DHT22;9178;51.120;6.192;2023-04-24T14:10:01;13.40;99.90
18103;DHT22;9178;51.120;6.192;2023-04-24T14:12:31;13.60;99.90
18103;DHT22;9178;51.120;6.192;2023-04-24T14:14:58;13.40;99.90
18103;DHT22;9178;51.120;6.192;2023-04-24T14:17:27;13.30;99.90
18103;DHT22;9178;51.120;6.192;2023-04-24T14:19:56;13.10;99.90
18103;DHT22;9178;51.120;6.192;2023-04-24T14:22:25;13.20;99.90
18103;DHT22;9178;51.120;6.192;2023-04-24T14:24:52;13.10;99.90
18103;DHT22;9178;51.120;6.192;2023-04-24T14:27:26;13.20;99.90
18103;DHT22;9178;51.120;6.192;2023-04-24T14:29:55;13.20;99.90
18103;DHT22;9178;51.120;6.192;2023-04-24T14:32:24;13.30;99.90
18103;DHT22;9178;51.120;6.192;2023-04-24T14:34:56;13.30;99.90
18103;DHT22;9178;51.120;6.192;2023-04-24T14:37:26;13.10;99.90
18103;DHT22;9178;51.120;6.192;2023-04-24T14:39:53;13.10;99.90
18103;DHT22;9178;51.120;6.192;2023-04-24T14:42:23;13.40;99.90
18103;DHT22;9178;51.120;6.192;2023-04-24T14:44:53;13.90;99.90
18103;DHT22;9178;51.120;6.192;2023-04-24T14:47:23;14.40;99.90
18103;DHT22;9178;51.120;6.192;2023-04-24T14:49:53;14.70;99.90
18103;DHT22;9178;51.120;6.192;2023-04-24T14:52:22;14.70;99.90
18103;DHT22;9178;51.120;6.192;2023-04-24T14:54:54;14.40;99.90
18103;DHT22;9178;51.120;6.192;2023-04-24T14:57:27;14.20;99.90
18103;DHT22;9178;51.120;6.192;2023-04-24T14:59:57;14.20;99.90
18103;DHT22;9178;51.120;6.192;2023-04-24T15:02:33;14.30;99.90
18103;DHT22;9178;51.120;6.192;2023-04-24T15:05:03;14.40;99.90
18103;DHT22;9178;51.120;6.192;2023-04-24T15:07:35;14.40;99.90
18103;DHT22;9178;51.120;6.192;2023-04-24T15:10:05;14.50;99.90
18103;DHT22;9178;51.120;6.192;2023-04-24T15:12:33;14.40;99.90
18103;DHT22;9178;51.120;6.192;2023-04-24T15:15:01;14.10;99.90
18103;DHT22;9178;51.120;6.192;2023-04-24T15:17:28;13.90;99.90
18103;DHT22;9178;51.120;6.192;2023-04-24T15:19:55;14.00;99.90
18103;DHT22;9178;51.120;6.192;2023-04-24T15:22:22;14.10;99.90
18103;DHT22;9178;51.120;6.192;2023-04-24T15:24:51;14.10;99.90
18103;DHT22;9178;51.120;6.192;2023-04-24T15:27:18;13.90;99.90
18103;DHT22;9178;51.120;6.192;2023-04-24T15:29:45;13.80;99.90
18103;DHT22;9178;51.120;6.192;2023-04-24T15:32:19;13.70;99.90
18103;DHT22;9178;51.120;6.192;2023-04-24T15:34:47;13.60;99.90
18103;DHT22;9178;51.120;6.192;2023-04-24T15:37:14;13.70;99.90
18103;DHT22;9178;51.120;6.192;2023-04-24T15:39:43;13.80;99.90
18103;DHT22;9178;51.120;6.192;2023-04-24T15:42:12;13.80;99.90
18103;DHT22;9178;51.120;6.192;2023-04-24T15:44:42;13.80;99.90
18103;DHT22;9178;51.120;6.192;2023-04-24T15:47:09;13.90;99.90
18103;DHT22;9178;51.120;6.192;2023-04-24T15:49:48;14.10;99.90
18103;DHT22;9178;51.120;6.192;2023-04-24T15:52:15;14.00;99.90
18103;DHT22;9178;51.120;6.192;2023-04-24T15:54:42;14.00;99.90
18103;DHT22;9178;51.120;6.192;2023-04-24T15:57:13;14.50;99.90
18103;DHT22;9178;51.120;6.192;2023-04-24T15:59:43;14.90;99.90
18103;DHT22;9178;51.120;6.192;2023-04-24T16:02:11;15.00;99.90
18103;DHT22;9178;51.120;6.192;2023-04-24T16:04:58;14.90;99.90
18103;DHT22;9178;51.120;6.192;2023-04-24T16:07:27;14.90;99.90
18103;DHT22;9178;51.120;6.192;2023-04-24T16:09:54;14.90;99.90
18103;DHT22;9178;51.120;6.192;2023-04-24T16:12:23;14.70;99.90
18103;DHT22;9178;51.120;6.192;2023-04-24T16:14:52;14.50;99.90